Time;durP1;ratioP1;P1;durP2;ratioP2;P2;SDS_P1;SDS_P2;PMS_P1;PMS_P2;Temp;Humidity;BMP_temperature;BMP_pressure;BME280_temperature;BME280_humidity;BME280_pressure;Samples;Min_cycle;Max_cycle;Signal;HPM_P1;HPM_P2
2021/10/14 00:00:38;;;;;;;25.20;18.02;;;16.50;67.50;;;;;;5003361;28;20052;-84
2021/10/14 00:03:08;;;;;;;26.65;17.80;;;16.50;67.50;;;;;;5021893;28;20038;-85
2021/10/14 00:05:34;;;;;;;24.23;18.17;;;16.50;67.60;;;;;;5023498;28;20041;-85
2021/10/14 00:08:01;;;;;;;30.13;19.15;;;16.50;68.20;;;;;;5012162;28;20393;-85
2021/10/14 00:10:28;;;;;;;28.30;18.05;;;16.40;67.60;;;;;;5043476;28;20029;-84
2021/10/14 00:12:54;;;;;;;26.70;17.83;;;16.40;67.50;;;;;;5022436;28;20036;-83
2021/10/14 00:15:21;;;;;;;21.98;17.10;;;16.40;67.40;;;;;;5031229;28;20063;-84
2021/10/14 00:17:47;;;;;;;24.92;19.30;;;16.40;67.50;;;;;;5033620;28;20037;-84
2021/10/14 00:20:14;;;;;;;23.90;17.77;;;16.40;67.50;;;;;;5009164;28;20300;-83
2021/10/14 00:22:40;;;;;;;30.38;18.15;;;16.40;67.50;;;;;;5045069;28;20084;-85
2021/10/14 00:25:06;;;;;;;26.70;19.25;;;16.40;67.50;;;;;;5045682;28;20048;-83
2021/10/14 00:27:32;;;;;;;24.77;18.83;;;16.30;67.50;;;;;;5028938;28;20098;-84
2021/10/14 00:29:58;;;;;;;28.83;18.20;;;16.30;67.60;;;;;;5010689;28;20036;-84
2021/10/14 00:32:24;;;;;;;29.60;19.23;;;16.30;67.60;;;;;;5010158;28;20657;-83
2021/10/14 00:34:50;;;;;;;25.65;18.10;;;16.30;67.60;;;;;;5029028;28;20098;-84
2021/10/14 00:37:16;;;;;;;27.17;18.45;;;16.30;67.60;;;;;;5012328;28;20178;-84
2021/10/14 00:39:42;;;;;;;27.02;17.67;;;16.30;67.70;;;;;;5027603;28;20044;-84
2021/10/14 00:42:08;;;;;;;25.17;18.13;;;16.30;67.60;;;;;;5043694;28;20127;-84
2021/10/14 00:44:48;;;;;;;30.00;18.30;;;16.30;67.60;;;;;;5043537;28;20041;-84
2021/10/14 00:47:26;;;;;;;25.38;17.63;;;16.30;67.70;;;;;;5031770;28;20033;-84
2021/10/14 00:49:53;;;;;;;24.10;17.70;;;16.30;67.70;;;;;;5046726;28;20056;-84
2021/10/14 00:52:19;;;;;;;27.05;17.73;;;16.30;67.70;;;;;;5044471;28;20038;-82
2021/10/14 00:54:47;;;;;;;24.85;17.55;;;16.30;67.70;;;;;;5045098;28;20560;-83
2021/10/14 00:57:13;;;;;;;25.15;17.95;;;16.30;67.60;;;;;;5043164;28;20404;-83
2021/10/14 00:59:41;;;;;;;25.42;17.55;;;16.30;67.70;;;;;;5030511;28;20045;-83
2021/10/14 01:02:07;;;;;;;23.60;17.00;;;16.30;67.60;;;;;;5046586;28;20060;-84
2021/10/14 01:04:33;;;;;;;26.48;17.80;;;16.30;67.60;;;;;;5023968;28;20041;-82
2021/10/14 01:07:00;;;;;;;24.58;18.00;;;16.30;67.60;;;;;;5043869;28;20563;-82
2021/10/14 01:09:26;;;;;;;28.00;16.98;;;16.30;67.60;;;;;;5043425;28;20523;-83
2021/10/14 01:11:52;;;;;;;27.17;17.45;;;16.30;67.70;;;;;;5044111;28;20034;-85
2021/10/14 01:14:19;;;;;;;23.55;16.55;;;16.20;67.60;;;;;;5043114;28;20033;-83
2021/10/14 01:16:47;;;;;;;22.75;16.27;;;16.20;67.50;;;;;;5025569;28;20111;-83
2021/10/14 01:19:14;;;;;;;27.42;16.48;;;16.20;67.50;;;;;;5030793;28;20029;-83
2021/10/14 01:21:41;;;;;;;24.95;16.90;;;16.20;67.50;;;;;;5043313;28;20029;-82
2021/10/14 01:24:08;;;;;;;25.20;15.95;;;16.20;67.50;;;;;;5043980;28;20029;-84
2021/10/14 01:26:34;;;;;;;24.95;16.60;;;16.20;67.50;;;;;;5033660;28;20041;-84
2021/10/14 01:29:01;;;;;;;21.92;15.35;;;16.20;67.40;;;;;;5036429;28;20548;-84
2021/10/14 01:31:27;;;;;;;23.10;15.05;;;16.20;67.40;;;;;;5034421;28;20032;-83
2021/10/14 01:33:55;;;;;;;21.90;15.68;;;16.20;67.40;;;;;;5042782;28;20033;-83
2021/10/14 01:36:21;;;;;;;23.13;15.52;;;16.20;67.30;;;;;;5042705;28;20082;-84
2021/10/14 01:38:47;;;;;;;20.30;14.80;;;16.20;67.40;;;;;;5024035;28;20032;-82
2021/10/14 01:41:13;;;;;;;21.77;14.68;;;16.20;67.40;;;;;;5024288;28;20033;-84
2021/10/14 01:43:40;;;;;;;20.73;14.07;;;16.10;67.40;;;;;;5042631;28;20034;-82
2021/10/14 01:46:06;;;;;;;18.98;14.15;;;16.20;67.50;;;;;;5043379;28;20029;-83
2021/10/14 01:48:32;;;;;;;23.30;14.73;;;16.20;67.40;;;;;;5042712;28;20159;-83
2021/10/14 01:50:59;;;;;;;19.98;13.95;;;16.20;67.40;;;;;;5042236;28;20033;-84
2021/10/14 01:53:26;;;;;;;19.40;13.35;;;16.20;67.40;;;;;;5025825;28;20387;-84
2021/10/14 01:55:52;;;;;;;20.85;13.60;;;16.20;67.40;;;;;;5036942;28;20064;-83
2021/10/14 01:58:18;;;;;;;23.45;13.80;;;16.20;67.40;;;;;;5010785;28;20056;-84
2021/10/14 02:00:46;;;;;;;23.48;14.13;;;16.20;67.30;;;;;;5039003;28;20033;-83
2021/10/14 02:03:12;;;;;;;16.80;13.02;;;16.10;67.30;;;;;;5021328;28;20038;-82
2021/10/14 02:05:38;;;;;;;19.25;12.60;;;16.10;67.50;;;;;;5022863;28;20029;-82
2021/10/14 02:08:04;;;;;;;17.05;13.48;;;16.10;67.20;;;;;;5005961;28;20042;-83
2021/10/14 02:10:30;;;;;;;19.60;13.45;;;16.10;67.10;;;;;;5009013;28;20040;-83
2021/10/14 02:12:58;;;;;;;20.30;12.80;;;16.10;67.10;;;;;;4993340;28;20029;-82
2021/10/14 02:15:24;;;;;;;19.48;12.60;;;16.10;67.10;;;;;;5006415;28;20124;-82
2021/10/14 02:17:50;;;;;;;18.15;12.80;;;16.10;67.10;;;;;;5024557;28;20436;-83
2021/10/14 02:20:17;;;;;;;17.45;13.13;;;16.10;67.10;;;;;;5023395;28;20120;-83
2021/10/14 02:22:43;;;;;;;19.23;13.45;;;16.10;67.10;;;;;;5022102;28;20038;-83
2021/10/14 02:25:11;;;;;;;19.83;13.02;;;16.10;67.10;;;;;;5024441;28;20124;-82
2021/10/14 02:27:38;;;;;;;22.50;13.30;;;16.10;66.90;;;;;;4993522;28;20041;-82
2021/10/14 02:30:06;;;;;;;19.48;12.02;;;16.00;66.80;;;;;;5024833;28;20401;-84
2021/10/14 02:32:32;;;;;;;17.95;12.57;;;16.00;66.80;;;;;;5006120;28;20030;-80
2021/10/14 02:34:58;;;;;;;18.23;12.80;;;16.10;66.70;;;;;;5004386;28;20036;-83
2021/10/14 02:37:26;;;;;;;18.05;12.45;;;16.10;66.70;;;;;;5004740;28;20128;-84
2021/10/14 02:39:52;;;;;;;20.88;12.82;;;16.10;66.70;;;;;;5003727;28;20042;-82
2021/10/14 02:42:18;;;;;;;19.05;12.02;;;16.10;66.70;;;;;;5009960;28;20024;-82
2021/10/14 02:44:45;;;;;;;19.05;13.27;;;16.00;66.70;;;;;;5005230;28;20440;-83
2021/10/14 02:47:11;;;;;;;16.27;11.85;;;16.10;66.70;;;;;;5009470;28;20546;-83
2021/10/14 02:49:37;;;;;;;19.02;11.98;;;16.00;66.70;;;;;;4993350;28;20036;-83
2021/10/14 02:52:04;;;;;;;18.60;11.85;;;16.00;66.60;;;;;;5021867;28;20450;-83
2021/10/14 02:54:30;;;;;;;15.70;11.65;;;16.00;66.60;;;;;;5010153;28;20040;-82
2021/10/14 02:56:56;;;;;;;19.08;11.90;;;16.00;66.60;;;;;;5043116;28;20033;-83
2021/10/14 02:59:22;;;;;;;20.88;13.02;;;16.00;66.60;;;;;;5042276;28;20029;-84
2021/10/14 03:01:48;;;;;;;17.25;11.48;;;16.00;66.50;;;;;;5042229;28;20025;-84
2021/10/14 03:04:14;;;;;;;19.77;12.40;;;16.00;66.50;;;;;;5024220;28;20040;-83
2021/10/14 03:06:40;;;;;;;18.80;11.52;;;16.00;66.50;;;;;;5023852;28;20029;-83
2021/10/14 03:09:06;;;;;;;18.85;12.25;;;15.90;66.50;;;;;;5042996;28;20046;-82
2021/10/14 03:11:32;;;;;;;17.83;12.05;;;15.90;66.50;;;;;;5028084;28;20036;-81
2021/10/14 03:13:57;;;;;;;20.88;12.70;;;15.90;66.50;;;;;;5041957;28;20033;-82
2021/10/14 03:16:23;;;;;;;19.02;11.75;;;15.90;66.60;;;;;;5042084;28;20065;-83
2021/10/14 03:18:51;;;;;;;17.38;11.82;;;15.90;66.60;;;;;;5042093;28;20060;-83
2021/10/14 03:21:18;;;;;;;19.17;11.60;;;15.90;66.50;;;;;;5045283;28;20514;-83
2021/10/14 03:23:44;;;;;;;17.75;11.35;;;15.90;66.50;;;;;;5041738;28;20042;-82
2021/10/14 03:26:10;;;;;;;20.10;11.65;;;15.90;66.50;;;;;;5025556;28;20056;-83
2021/10/14 03:28:36;;;;;;;20.23;11.27;;;15.90;66.50;;;;;;5024298;28;20029;-82
2021/10/14 03:31:02;;;;;;;18.10;10.80;;;15.90;66.30;;;;;;5008184;28;20070;-84
2021/10/14 03:33:29;;;;;;;16.92;10.85;;;15.90;66.20;;;;;;5042551;28;20036;-84
2021/10/14 03:35:54;;;;;;;19.25;11.52;;;15.90;66.20;;;;;;5041825;28;20033;-84
2021/10/14 03:38:20;;;;;;;17.85;11.25;;;15.90;66.20;;;;;;5042940;28;20033;-84
2021/10/14 03:40:46;;;;;;;18.10;11.48;;;15.80;66.00;;;;;;5024139;28;20040;-83
2021/10/14 03:43:12;;;;;;;18.30;10.75;;;15.90;66.00;;;;;;5023077;28;20036;-81
2021/10/14 03:45:38;;;;;;;14.75;10.80;;;15.80;65.90;;;;;;5027501;28;20032;-82
2021/10/14 03:48:04;;;;;;;19.63;11.75;;;15.80;65.80;;;;;;5028603;28;20047;-83
2021/10/14 03:50:30;;;;;;;19.20;12.20;;;15.90;65.80;;;;;;5041786;28;20032;-82
2021/10/14 03:52:56;;;;;;;19.90;11.57;;;15.80;65.70;;;;;;5020071;28;20036;-82
2021/10/14 03:55:22;;;;;;;16.85;11.10;;;15.80;65.80;;;;;;5041781;28;20086;-82
2021/10/14 03:57:48;;;;;;;19.00;10.85;;;15.80;65.70;;;;;;5028715;28;20119;-82
2021/10/14 04:00:14;;;;;;;23.08;10.93;;;15.80;65.80;;;;;;5024385;28;20179;-83
2021/10/14 04:02:40;;;;;;;16.33;11.15;;;15.80;65.80;;;;;;5044839;28;20033;-85
2021/10/14 04:05:07;;;;;;;17.65;11.52;;;15.80;65.80;;;;;;5005523;28;20110;-84
2021/10/14 04:07:33;;;;;;;18.85;11.38;;;15.80;65.90;;;;;;5044875;28;20037;-82
2021/10/14 04:09:59;;;;;;;19.17;10.50;;;15.80;65.90;;;;;;5025900;28;20036;-84
2021/10/14 04:12:25;;;;;;;16.67;11.32;;;15.80;65.70;;;;;;5027299;28;20029;-83
2021/10/14 04:14:51;;;;;;;16.80;11.32;;;15.80;65.70;;;;;;5029036;28;20028;-85
2021/10/14 04:17:17;;;;;;;17.17;10.73;;;15.80;65.70;;;;;;5044162;28;20033;-83
2021/10/14 04:19:43;;;;;;;18.67;11.13;;;15.80;65.60;;;;;;5024814;28;20036;-84
2021/10/14 04:22:09;;;;;;;19.33;10.65;;;15.80;65.50;;;;;;5022510;28;20179;-84
2021/10/14 04:24:35;;;;;;;20.05;11.23;;;15.80;65.40;;;;;;5028241;28;20037;-86
2021/10/14 04:27:01;;;;;;;21.85;11.52;;;15.80;65.30;;;;;;5045261;28;20056;-88
2021/10/14 04:29:27;;;;;;;16.98;10.38;;;15.80;65.20;;;;;;5045907;28;20480;-86
2021/10/14 04:31:54;;;;;;;20.73;10.38;;;15.80;65.10;;;;;;5048566;28;20037;-91
2021/10/14 04:34:20;;;;;;;16.77;11.00;;;15.80;65.00;;;;;;5046352;28;20158;-87
2021/10/14 04:36:46;;;;;;;21.20;10.45;;;15.90;65.00;;;;;;5048227;28;20020;-88
2021/10/14 04:39:12;;;;;;;16.45;10.52;;;15.90;64.90;;;;;;5018915;28;20072;-83
2021/10/14 04:41:38;;;;;;;17.35;10.10;;;15.90;64.80;;;;;;5034796;28;20041;-84
2021/10/14 04:44:05;;;;;;;19.27;10.32;;;15.90;64.80;;;;;;5009692;28;20379;-85
2021/10/14 04:46:31;;;;;;;16.77;10.10;;;15.90;64.70;;;;;;5032174;28;20029;-84
2021/10/14 04:48:57;;;;;;;17.35;10.32;;;15.90;64.70;;;;;;5024808;28;20040;-85
2021/10/14 04:51:23;;;;;;;16.92;10.50;;;15.90;64.70;;;;;;5041012;28;20037;-84
2021/10/14 04:53:49;;;;;;;19.92;11.45;;;15.90;64.60;;;;;;5040016;28;20028;-85
2021/10/14 04:56:15;;;;;;;20.55;10.80;;;15.90;64.50;;;;;;5025954;28;20065;-84
2021/10/14 04:58:41;;;;;;;17.35;10.55;;;15.90;64.50;;;;;;5010381;28;20052;-84
2021/10/14 05:01:07;;;;;;;19.52;10.55;;;15.90;64.40;;;;;;5043113;28;20039;-84
2021/10/14 05:03:33;;;;;;;18.92;10.25;;;15.90;64.20;;;;;;5043281;28;20070;-83
2021/10/14 05:05:59;;;;;;;15.68;9.55;;;15.90;64.10;;;;;;5025932;28;20047;-83
2021/10/14 05:08:25;;;;;;;16.30;9.20;;;15.90;64.10;;;;;;5049549;28;20041;-87
2021/10/14 05:10:51;;;;;;;15.90;9.98;;;15.90;64.00;;;;;;5035653;28;20116;-91
2021/10/14 05:13:16;;;;;;;15.55;9.18;;;15.90;64.00;;;;;;5034255;28;20547;-84
2021/10/14 05:15:42;;;;;;;17.45;9.70;;;15.90;64.00;;;;;;5054124;28;20029;-89
2021/10/14 05:18:08;;;;;;;16.48;10.25;;;15.80;63.90;;;;;;5036312;28;20043;-89
2021/10/14 05:20:34;;;;;;;18.02;9.32;;;15.90;63.90;;;;;;5049800;28;20037;-84
2021/10/14 05:23:00;;;;;;;19.20;9.75;;;15.90;63.80;;;;;;5027357;28;20033;-88
2021/10/14 05:25:26;;;;;;;11.57;8.80;;;15.80;63.80;;;;;;5015045;28;20025;-88
2021/10/14 05:27:52;;;;;;;15.82;9.50;;;15.90;64.00;;;;;;5031277;28;20045;-86
2021/10/14 05:30:20;;;;;;;18.25;9.25;;;15.90;64.20;;;;;;5031361;28;20064;-87
2021/10/14 05:32:46;;;;;;;12.88;8.65;;;15.90;64.00;;;;;;5044320;28;20033;-87
2021/10/14 05:35:12;;;;;;;18.95;9.15;;;15.90;64.00;;;;;;5019478;28;20036;-87
2021/10/14 05:37:38;;;;;;;14.90;8.70;;;15.90;63.90;;;;;;5045370;28;20025;-88
2021/10/14 05:40:05;;;;;;;15.52;8.85;;;15.90;63.80;;;;;;5027891;28;20242;-86
2021/10/14 05:42:31;;;;;;;16.42;8.15;;;15.90;63.70;;;;;;5027504;28;20060;-86
2021/10/14 05:44:57;;;;;;;17.30;8.35;;;15.90;63.50;;;;;;5011814;28;20075;-86
2021/10/14 05:47:23;;;;;;;12.82;8.90;;;15.90;63.20;;;;;;5042805;28;20415;-87
2021/10/14 05:49:49;;;;;;;16.77;9.77;;;15.90;63.00;;;;;;5009428;28;20041;-86
2021/10/14 05:52:15;;;;;;;16.95;8.85;;;15.90;63.00;;;;;;5045904;28;20048;-87
2021/10/14 05:54:41;;;;;;;15.32;8.25;;;15.90;63.00;;;;;;5030344;28;20033;-87
2021/10/14 05:57:07;;;;;;;14.32;8.13;;;15.90;62.80;;;;;;5027784;28;20599;-87
2021/10/14 05:59:33;;;;;;;12.00;7.97;;;15.90;62.60;;;;;;5043855;28;20032;-85
2021/10/14 06:01:59;;;;;;;12.77;8.18;;;15.90;62.30;;;;;;5026421;28;20060;-88
2021/10/14 06:04:25;;;;;;;12.80;7.55;;;15.90;62.20;;;;;;5009671;28;20041;-87
2021/10/14 06:06:51;;;;;;;15.98;7.75;;;15.90;62.00;;;;;;5013371;28;20040;-88
2021/10/14 06:09:17;;;;;;;17.52;8.15;;;15.90;61.70;;;;;;5012224;28;20032;-86
2021/10/14 06:11:43;;;;;;;12.50;7.65;;;15.90;61.60;;;;;;5024983;28;20021;-87
2021/10/14 06:14:09;;;;;;;14.95;8.60;;;16.00;61.90;;;;;;5014195;28;20380;-88
2021/10/14 06:16:35;;;;;;;12.32;7.80;;;16.00;62.10;;;;;;5013425;28;20531;-87
2021/10/14 06:19:01;;;;;;;12.15;7.72;;;16.00;62.00;;;;;;5043205;28;20033;-87
2021/10/14 06:21:27;;;;;;;13.18;7.88;;;16.00;61.80;;;;;;5043542;28;20041;-88
2021/10/14 06:23:53;;;;;;;14.98;7.28;;;16.00;61.70;;;;;;5040484;28;20175;-86
2021/10/14 06:26:19;;;;;;;13.40;8.10;;;16.10;61.50;;;;;;5029203;28;20393;-88
2021/10/14 06:28:44;;;;;;;13.13;7.55;;;16.00;61.30;;;;;;5014268;28;20044;-88
2021/10/14 06:31:12;;;;;;;15.07;8.02;;;16.00;61.30;;;;;;5031809;28;20033;-89
2021/10/14 06:33:38;;;;;;;16.25;8.02;;;16.00;61.10;;;;;;5014223;28;20032;-88
2021/10/14 06:36:04;;;;;;;17.08;8.07;;;16.10;61.00;;;;;;5040633;28;20029;-89
2021/10/14 06:38:30;;;;;;;13.88;8.10;;;16.10;60.80;;;;;;5009165;28;20029;-88
2021/10/14 06:40:56;;;;;;;12.38;7.40;;;16.00;60.50;;;;;;5025145;28;20138;-88
2021/10/14 06:43:22;;;;;;;10.57;7.43;;;16.10;60.90;;;;;;5028326;28;20037;-88
2021/10/14 06:45:50;;;;;;;18.80;8.13;;;16.10;60.80;;;;;;5042277;28;20028;-86
2021/10/14 06:48:15;;;;;;;14.32;7.93;;;16.10;60.70;;;;;;5044651;28;20047;-91
2021/10/14 06:50:41;;;;;;;15.75;7.38;;;16.10;60.40;;;;;;5027087;28;20052;-90
2021/10/14 06:53:10;;;;;;;14.88;8.52;;;16.10;60.10;;;;;;5010014;28;20561;-88
2021/10/14 06:55:37;;;;;;;16.17;8.05;;;16.10;60.00;;;;;;5011857;28;20081;-86
2021/10/14 06:58:03;;;;;;;15.00;8.00;;;16.10;59.90;;;;;;5040201;28;20120;-89
2021/10/14 07:00:29;;;;;;;14.60;8.00;;;16.10;59.80;;;;;;5045657;28;20036;-90
2021/10/14 07:02:55;;;;;;;15.68;8.40;;;16.10;59.70;;;;;;5009448;28;20029;-87
2021/10/14 07:05:21;;;;;;;17.13;7.65;;;16.10;59.70;;;;;;5012996;28;20462;-90
2021/10/14 07:07:47;;;;;;;14.07;7.60;;;16.10;59.70;;;;;;5011541;28;20090;-93
2021/10/14 07:10:15;;;;;;;15.70;7.35;;;16.10;59.60;;;;;;5035146;28;20037;-92
2021/10/14 07:12:41;;;;;;;14.63;8.00;;;16.10;59.60;;;;;;5034120;28;20032;-91
2021/10/14 07:15:08;;;;;;;17.33;7.50;;;16.20;59.90;;;;;;5052528;28;20068;-92
2021/10/14 07:17:34;;;;;;;15.43;7.60;;;16.20;59.80;;;;;;5052346;28;20458;-92
2021/10/14 07:20:01;;;;;;;18.90;8.07;;;16.10;59.70;;;;;;5018401;28;20033;-92
2021/10/14 07:22:27;;;;;;;16.08;7.55;;;16.10;59.70;;;;;;5036554;28;20411;-92
2021/10/14 07:24:53;;;;;;;16.77;7.68;;;16.10;59.70;;;;;;5065021;28;20033;-90
2021/10/14 07:27:19;;;;;;;18.10;6.93;;;16.10;60.00;;;;;;5066473;28;20103;-89
2021/10/14 07:29:45;;;;;;;11.93;6.93;;;16.10;59.80;;;;;;5035332;28;20029;-91
2021/10/14 07:32:11;;;;;;;16.33;8.00;;;16.10;59.70;;;;;;5043913;28;20507;-91
2021/10/14 07:34:38;;;;;;;18.48;7.93;;;16.10;60.10;;;;;;5022974;28;20025;-88
2021/10/14 07:37:05;;;;;;;15.40;7.90;;;16.10;60.90;;;;;;5023862;28;20041;-85
2021/10/14 07:39:32;;;;;;;18.52;7.82;;;16.10;60.10;;;;;;5027938;28;20037;-83
2021/10/14 07:41:58;;;;;;;20.65;7.88;;;16.10;59.50;;;;;;5041227;28;20438;-86
2021/10/14 07:44:24;;;;;;;19.65;7.72;;;16.10;59.60;;;;;;5029352;28;20045;-85
2021/10/14 07:46:50;;;;;;;14.65;7.28;;;16.00;59.50;;;;;;5008230;28;20119;-85
2021/10/14 07:49:18;;;;;;;16.63;8.02;;;16.10;59.50;;;;;;5020560;28;20175;-84
2021/10/14 07:51:43;;;;;;;15.93;8.18;;;16.10;59.50;;;;;;5043061;28;20025;-85
2021/10/14 07:54:09;;;;;;;17.13;7.97;;;16.00;59.50;;;;;;5011283;28;20175;-86
2021/10/14 07:56:36;;;;;;;14.68;7.70;;;16.00;59.60;;;;;;5025167;28;20419;-84
2021/10/14 07:59:02;;;;;;;14.00;7.60;;;16.00;59.80;;;;;;5032611;28;20056;-86
2021/10/14 08:01:28;;;;;;;18.15;8.18;;;16.00;59.80;;;;;;5017082;28;20033;-85
2021/10/14 08:03:54;;;;;;;22.40;7.97;;;16.00;59.90;;;;;;5051509;28;20044;-86
2021/10/14 08:06:20;;;;;;;17.83;8.30;;;16.00;59.90;;;;;;5011877;28;20094;-86
2021/10/14 08:08:46;;;;;;;17.27;8.27;;;16.00;59.80;;;;;;5040341;28;20033;-85
2021/10/14 08:11:12;;;;;;;15.52;8.27;;;16.00;59.80;;;;;;5042399;28;20029;-85
2021/10/14 08:13:38;;;;;;;16.77;8.45;;;16.00;59.90;;;;;;5011885;28;20474;-86
2021/10/14 08:16:05;;;;;;;18.88;8.30;;;16.00;59.80;;;;;;5040258;28;20029;-85
2021/10/14 08:18:31;;;;;;;20.90;8.90;;;16.00;59.80;;;;;;5025597;28;20057;-85
2021/10/14 08:20:57;;;;;;;15.30;7.72;;;16.00;59.90;;;;;;5010970;28;20048;-85
2021/10/14 08:23:24;;;;;;;17.20;8.02;;;16.00;59.90;;;;;;5033235;28;20048;-84
2021/10/14 08:25:51;;;;;;;15.57;8.15;;;16.00;60.00;;;;;;5025737;28;20144;-84
2021/10/14 08:28:18;;;;;;;17.42;7.82;;;16.00;60.00;;;;;;5044404;28;20036;-85
2021/10/14 08:30:46;;;;;;;14.82;8.35;;;15.90;60.00;;;;;;5050185;28;20029;-84
2021/10/14 08:33:14;;;;;;;14.70;7.97;;;15.90;60.00;;;;;;5028204;28;20036;-85
2021/10/14 08:35:41;;;;;;;13.63;8.27;;;16.00;60.20;;;;;;5054068;28;20488;-85
2021/10/14 08:38:09;;;;;;;16.10;8.65;;;15.90;60.10;;;;;;5017349;28;20083;-85
2021/10/14 08:40:36;;;;;;;14.52;7.70;;;15.90;60.10;;;;;;5017721;28;20415;-84
2021/10/14 08:43:12;;;;;;;14.90;7.93;;;16.00;60.30;;;;;;5052241;28;20029;-85
2021/10/14 08:45:39;;;;;;;;;;;16.00;60.30;;;;;;5037446;28;20041;-86
2021/10/14 08:48:05;;;;;;;18.65;8.93;;;16.00;60.10;;;;;;5036648;28;19943;-85
2021/10/14 08:50:33;;;;;;;19.75;9.13;;;16.00;60.00;;;;;;5055146;28;20519;-85
2021/10/14 08:52:59;;;;;;;17.13;8.13;;;16.00;60.00;;;;;;5036130;28;20029;-86
2021/10/14 08:55:27;;;;;;;15.77;8.40;;;16.00;60.00;;;;;;5036827;28;20057;-86
2021/10/14 08:57:54;;;;;;;21.73;9.23;;;16.00;59.90;;;;;;5028537;28;20037;-84
2021/10/14 09:00:20;;;;;;;17.30;8.88;;;16.00;59.90;;;;;;5014532;28;20029;-86
2021/10/14 09:02:46;;;;;;;15.15;8.77;;;16.10;59.80;;;;;;5028359;28;20056;-89
2021/10/14 09:05:14;;;;;;;19.55;8.85;;;16.10;60.60;;;;;;5032032;28;20450;-90
2021/10/14 09:07:40;;;;;;;20.08;8.48;;;16.10;59.50;;;;;;5045194;28;20463;-89
2021/10/14 09:10:13;;;;;;;19.02;9.15;;;16.00;58.80;;;;;;5045850;28;20385;-89
2021/10/14 09:12:44;;;;;;;20.20;9.68;;;16.10;58.60;;;;;;5034193;28;20036;-91
2021/10/14 09:15:13;;;;;;;19.58;10.05;;;16.00;58.20;;;;;;5061140;28;20063;-88
2021/10/14 09:17:43;;;;;;;20.67;9.30;;;16.00;58.10;;;;;;5062995;28;20035;-89
2021/10/14 09:20:28;;;;;;;21.23;9.43;;;16.00;58.00;;;;;;5057225;28;20087;-87
2021/10/14 09:23:21;;;;;;;32.53;13.38;;;15.90;57.90;;;;;;5029505;28;20512;-90
2021/10/14 09:25:53;;;;;;;27.08;13.23;;;15.80;58.20;;;;;;5046672;28;20464;-89
2021/10/14 09:28:27;;;;;;;25.95;11.80;;;15.80;58.40;;;;;;5047725;28;20104;-88
2021/10/14 09:31:03;;;;;;;22.63;11.45;;;15.80;58.30;;;;;;5033222;28;20147;-87
2021/10/14 09:33:31;;;;;;;23.80;11.57;;;15.80;58.10;;;;;;5048773;28;20029;-92
2021/10/14 09:36:10;;;;;;;22.02;10.75;;;15.80;58.10;;;;;;5028189;28;20029;-87
2021/10/14 09:38:36;;;;;;;24.15;9.90;;;15.80;58.40;;;;;;5045076;28;20053;-90
2021/10/14 09:41:04;;;;;;;27.92;10.05;;;15.80;58.20;;;;;;5030596;28;20112;-89
2021/10/14 09:43:30;;;;;;;20.83;9.60;;;15.80;58.30;;;;;;5015863;28;20037;-87
2021/10/14 09:45:56;;;;;;;21.35;10.35;;;15.80;58.10;;;;;;5033891;28;20415;-90
2021/10/14 09:48:22;;;;;;;21.63;10.20;;;15.80;58.40;;;;;;5063715;28;20033;-87
2021/10/14 09:50:49;;;;;;;20.35;9.93;;;15.80;58.50;;;;;;5048227;28;20036;-84
2021/10/14 09:53:17;;;;;;;26.65;11.18;;;15.80;58.50;;;;;;5057112;28;20034;-88
2021/10/14 09:56:23;;;;;;;23.80;9.98;;;15.80;58.50;;;;;;5012783;28;20200;-90
2021/10/14 09:59:55;;;;;;;23.55;9.52;;;15.80;58.70;;;;;;5042579;28;20124;-90
2021/10/14 10:07:27;;;;;;;21.63;10.73;;;15.70;58.80;;;;;;4922275;29;20467;-89
2021/10/14 10:09:55;;;;;;;27.50;10.70;;;15.70;58.80;;;;;;4924415;29;20063;-90
2021/10/14 10:13:17;;;;;;;24.17;10.50;;;15.70;58.80;;;;;;4931520;29;20032;-91
2021/10/14 10:15:49;;;;;;;22.40;10.77;;;15.60;58.80;;;;;;4928265;29;20067;-91
2021/10/14 10:21:41;;;;;;;26.52;10.45;;;15.60;59.20;;;;;;4920927;29;20151;-89
2021/10/14 10:24:59;;;;;;;22.88;9.88;;;15.60;59.30;;;;;;4954883;28;20418;-91
2021/10/14 10:27:34;;;;;;;20.40;9.75;;;15.50;59.70;;;;;;4963775;28;20126;-89
2021/10/14 10:30:00;;;;;;;20.03;10.23;;;15.50;60.00;;;;;;5024710;28;20515;-89
2021/10/14 10:32:26;;;;;;;25.23;10.40;;;15.50;60.50;;;;;;5027329;28;20094;-88
2021/10/14 10:35:02;;;;;;;25.85;10.05;;;15.30;61.00;;;;;;5025656;28;20029;-89
2021/10/14 10:37:41;;;;;;;24.80;9.93;;;15.30;61.30;;;;;;5042951;28;20573;-89
2021/10/14 10:40:16;;;;;;;22.08;10.25;;;15.30;61.70;;;;;;5042929;28;20041;-91
2021/10/14 10:43:02;;;;;;;27.40;11.02;;;15.20;62.20;;;;;;5034319;28;20056;-90
2021/10/14 10:45:41;;;;;;;29.45;10.00;;;15.20;62.60;;;;;;5049597;28;20029;-89
2021/10/14 10:48:07;;;;;;;28.35;10.63;;;15.20;62.40;;;;;;5049351;28;20092;-88
2021/10/14 10:50:33;;;;;;;25.20;10.38;;;15.20;62.00;;;;;;5050521;28;20067;-86
2021/10/14 10:53:05;;;;;;;26.13;10.15;;;15.20;61.90;;;;;;5065493;28;20115;-88
2021/10/14 10:55:31;;;;;;;24.58;9.75;;;15.20;62.00;;;;;;5031059;28;20613;-86
2021/10/14 10:57:57;;;;;;;28.20;11.02;;;15.20;62.00;;;;;;5050539;28;20056;-86
2021/10/14 11:00:24;;;;;;;22.08;10.38;;;15.10;62.00;;;;;;5051242;28;20033;-91
2021/10/14 11:03:48;;;;;;;33.85;11.98;;;15.10;61.70;;;;;;5047113;28;20029;-89
2021/10/14 11:10:29;;;;;;;30.33;11.07;;;15.00;62.30;;;;;;4903331;29;20087;-88
2021/10/14 11:13:02;;;;;;;32.63;11.63;;;14.90;62.10;;;;;;4898593;29;20028;-88
2021/10/14 11:19:17;;;;;;;22.20;11.25;;;14.90;62.30;;;;;;4904747;29;20055;-89
2021/10/14 11:21:43;;;;;;;26.92;10.57;;;14.90;62.40;;;;;;4895878;29;20100;-89
2021/10/14 11:24:09;;;;;;;33.33;11.15;;;14.90;62.80;;;;;;4939598;28;20052;-91
2021/10/14 11:26:42;;;;;;;29.60;10.10;;;14.80;63.00;;;;;;5037900;28;20041;-90
2021/10/14 11:29:16;;;;;;;29.38;10.75;;;14.80;62.90;;;;;;5026992;28;20518;-92
2021/10/14 11:31:58;;;;;;;36.53;11.57;;;14.90;62.80;;;;;;5026210;28;20038;-92
2021/10/14 11:34:26;;;;;;;29.63;10.60;;;14.90;62.80;;;;;;5029119;28;20443;-93
2021/10/14 11:37:06;;;;;;;25.30;10.65;;;14.90;62.90;;;;;;5013467;28;20025;-92
2021/10/14 11:39:39;;;;;;;36.03;11.25;;;14.80;63.10;;;;;;5012273;28;20040;-92
2021/10/14 11:42:09;;;;;;;35.85;11.57;;;14.80;63.20;;;;;;5028768;28;20495;-92
2021/10/14 11:44:37;;;;;;;23.42;9.93;;;14.60;63.80;;;;;;5005761;28;20163;-90
2021/10/14 11:47:06;;;;;;;28.45;9.63;;;14.70;63.60;;;;;;5006750;28;20029;-91
2021/10/14 11:49:32;;;;;;;39.13;10.70;;;14.50;63.60;;;;;;5012479;28;20614;-90
2021/10/14 11:52:03;;;;;;;34.83;9.65;;;14.60;63.40;;;;;;5044446;28;20029;-90
2021/10/14 11:54:35;;;;;;;33.22;9.93;;;14.60;63.50;;;;;;5016499;28;20175;-91
2021/10/14 11:57:03;;;;;;;36.25;10.60;;;14.60;63.60;;;;;;5012759;28;20623;-90
2021/10/14 11:59:30;;;;;;;31.38;10.63;;;14.70;63.40;;;;;;5016567;28;20040;-92
2021/10/14 12:02:08;;;;;;;31.17;11.18;;;14.60;63.60;;;;;;5012515;28;20037;-92
2021/10/14 12:04:41;;;;;;;27.65;10.85;;;14.60;63.70;;;;;;5017668;28;20068;-91
2021/10/14 12:10:58;;;;;;;34.13;10.68;;;14.70;63.90;;;;;;5018464;28;20057;-84
2021/10/14 12:13:33;;;;;;;26.75;10.98;;;14.60;64.00;;;;;;5000208;28;20077;-85
2021/10/14 12:21:02;;;;;;;;;;;;;;;;;;;;;
2021/10/14 12:24:18;;;;;;;28.20;11.07;;;14.40;64.90;;;;;;4883561;29;20063;-87
2021/10/14 12:26:56;;;;;;;34.28;10.82;;;14.50;64.90;;;;;;4885719;29;20045;-86
2021/10/14 12:29:51;;;;;;;30.92;10.68;;;14.50;64.80;;;;;;4893659;29;20080;-85
2021/10/14 12:33:00;;;;;;;32.15;11.82;;;14.50;65.10;;;;;;4895689;29;20047;-85
2021/10/14 12:36:08;;;;;;;31.35;11.82;;;14.40;65.10;;;;;;4954552;29;20522;-85
2021/10/14 12:39:27;;;;;;;32.47;11.80;;;14.40;65.30;;;;;;4945419;28;20195;-85
2021/10/14 12:41:57;;;;;;;29.33;12.30;;;14.40;65.50;;;;;;4907157;29;20046;-86
2021/10/14 12:47:54;;;;;;;33.60;13.30;;;14.40;65.70;;;;;;4904277;29;20060;-85
2021/10/14 12:51:29;;;;;;;34.55;13.55;;;14.40;65.90;;;;;;4879665;29;20132;-85
2021/10/14 12:54:31;;;;;;;26.38;12.45;;;14.40;66.00;;;;;;4870488;29;20108;-84
2021/10/14 13:08:46;;;;;;;28.55;12.20;;;14.30;66.80;;;;;;4908407;29;20076;-85
2021/10/14 13:11:14;;;;;;;34.85;13.15;;;14.30;67.00;;;;;;4909674;29;20243;-84
2021/10/14 13:13:41;;;;;;;26.90;12.13;;;14.30;67.20;;;;;;4998843;28;20263;-84
2021/10/14 13:16:08;;;;;;;24.55;12.93;;;14.30;67.40;;;;;;5024490;28;20038;-83
2021/10/14 13:18:35;;;;;;;31.75;13.05;;;14.30;67.40;;;;;;5010148;28;20150;-84
2021/10/14 13:21:03;;;;;;;34.85;14.32;;;14.30;67.60;;;;;;5022838;28;20042;-84
2021/10/14 13:23:30;;;;;;;29.08;13.05;;;14.30;67.50;;;;;;5044889;28;20091;-85